Time;durP1;ratioP1;P1;durP2;ratioP2;P2;SDS_P1;SDS_P2;PMS_P1;PMS_P2;Temp;Humidity;BMP_temperature;BMP_pressure;BME280_temperature;BME280_humidity;BME280_pressure;Samples;Min_cycle;Max_cycle;Signal;HPM_P1;HPM_P2
2020/12/26 00:02:18;;;;;;;4.57;1.95;;;7.20;68.00;;;;;;5015318;28;20042;-72
2020/12/26 00:04:44;;;;;;;3.28;2.00;;;7.50;68.10;;;;;;5015224;28;20493;-72
2020/12/26 00:07:10;;;;;;;5.80;2.35;;;7.50;68.20;;;;;;5015288;28;20498;-72
2020/12/26 00:09:36;;;;;;;4.38;2.47;;;7.30;68.00;;;;;;5015259;28;20072;-72
2020/12/26 00:12:02;;;;;;;4.80;2.13;;;7.40;68.10;;;;;;5015328;28;20531;-72
2020/12/26 00:14:27;;;;;;;3.97;2.08;;;7.70;68.30;;;;;;5015200;28;20034;-72
2020/12/26 00:16:58;;;;;;;4.45;1.80;;;7.50;68.20;;;;;;5015153;28;20069;-72
2020/12/26 00:19:24;;;;;;;4.88;2.00;;;7.20;68.10;;;;;;5015519;28;20046;-72
2020/12/26 00:21:51;;;;;;;4.07;1.83;;;7.30;68.20;;;;;;5015332;28;20109;-72
2020/12/26 00:24:17;;;;;;;6.13;1.90;;;7.60;68.30;;;;;;5015271;28;20498;-72
2020/12/26 00:26:43;;;;;;;4.97;2.10;;;7.50;68.30;;;;;;5014868;28;20509;-72
2020/12/26 00:29:08;;;;;;;2.70;1.80;;;7.50;68.30;;;;;;5014870;28;20045;-72
2020/12/26 00:31:34;;;;;;;4.93;1.77;;;7.40;68.30;;;;;;5015383;28;20620;-72
2020/12/26 00:34:00;;;;;;;4.45;1.60;;;7.60;68.40;;;;;;5015129;28;20091;-72
2020/12/26 00:36:26;;;;;;;6.10;1.80;;;7.30;68.30;;;;;;5015238;28;20037;-72
2020/12/26 00:38:52;;;;;;;4.15;1.50;;;7.30;68.40;;;;;;5015370;28;20401;-72
2020/12/26 00:41:17;;;;;;;7.05;2.20;;;7.40;68.40;;;;;;5015213;28;20030;-72
2020/12/26 00:43:44;;;;;;;3.55;1.73;;;7.40;68.50;;;;;;5030417;28;20053;-72
2020/12/26 00:46:10;;;;;;;3.88;1.88;;;7.50;68.60;;;;;;5015208;28;20037;-72
2020/12/26 00:48:35;;;;;;;3.38;1.85;;;7.40;68.50;;;;;;5014712;28;20041;-72
2020/12/26 00:51:02;;;;;;;3.63;1.75;;;7.30;68.50;;;;;;5015021;28;20099;-72
2020/12/26 00:53:29;;;;;;;4.38;1.98;;;7.60;68.70;;;;;;5014657;28;20046;-72
2020/12/26 00:55:55;;;;;;;2.55;1.45;;;7.50;68.60;;;;;;5014959;28;20038;-72
2020/12/26 00:58:20;;;;;;;5.55;1.90;;;7.60;68.80;;;;;;5029612;28;20531;-72
2020/12/26 01:00:46;;;;;;;3.50;1.70;;;7.40;68.90;;;;;;5015002;28;20042;-72
2020/12/26 01:03:12;;;;;;;4.25;1.45;;;7.60;69.00;;;;;;5014244;28;20060;-72
2020/12/26 01:05:38;;;;;;;5.85;1.70;;;7.50;69.00;;;;;;5014478;28;20066;-72
2020/12/26 01:08:04;;;;;;;3.40;1.50;;;7.80;69.20;;;;;;5014501;28;20485;-72
2020/12/26 01:10:30;;;;;;;5.43;1.67;;;7.70;69.20;;;;;;5014570;28;20393;-72
2020/12/26 01:12:55;;;;;;;4.15;1.50;;;7.60;69.10;;;;;;5013082;28;20085;-72
2020/12/26 01:15:21;;;;;;;4.82;1.17;;;7.60;69.10;;;;;;5014379;28;20034;-72
2020/12/26 01:17:47;;;;;;;2.47;1.35;;;7.40;69.00;;;;;;5029378;28;20042;-72
2020/12/26 01:20:13;;;;;;;2.20;1.13;;;7.60;69.10;;;;;;5014653;28;20045;-72
2020/12/26 01:22:39;;;;;;;4.47;1.30;;;7.60;69.20;;;;;;5014509;28;20045;-72
2020/12/26 01:25:05;;;;;;;4.88;1.42;;;7.80;69.40;;;;;;5014503;28;20066;-72
2020/12/26 01:27:31;;;;;;;3.42;1.38;;;7.60;69.20;;;;;;5014268;28;20053;-72
2020/12/26 01:29:57;;;;;;;3.85;1.60;;;7.30;69.00;;;;;;5014009;28;20054;-72
2020/12/26 01:32:27;;;;;;;3.60;1.38;;;7.50;69.10;;;;;;5014120;28;20060;-72
2020/12/26 01:34:56;;;;;;;2.60;1.20;;;7.60;69.10;;;;;;5029299;28;20131;-72
2020/12/26 01:37:22;;;;;;;4.70;1.50;;;7.50;69.00;;;;;;5012701;28;20065;-72
2020/12/26 01:39:48;;;;;;;3.63;1.17;;;7.30;69.00;;;;;;5013552;28;20061;-72
2020/12/26 01:42:14;;;;;;;3.22;1.27;;;7.40;69.20;;;;;;5028962;28;20041;-72
2020/12/26 01:44:40;;;;;;;4.15;1.48;;;7.70;69.40;;;;;;5013939;28;20490;-72
2020/12/26 01:47:06;;;;;;;5.43;1.63;;;7.00;69.10;;;;;;5013758;28;20038;-72
2020/12/26 01:49:33;;;;;;;5.18;1.50;;;7.30;69.30;;;;;;5013544;28;20108;-72
2020/12/26 01:52:00;;;;;;;5.80;1.88;;;7.10;69.30;;;;;;5013407;28;20045;-72
2020/12/26 01:54:28;;;;;;;4.93;1.70;;;7.30;69.50;;;;;;5013617;28;20037;-72
2020/12/26 01:56:53;;;;;;;3.42;1.48;;;7.30;69.50;;;;;;5013632;28;20112;-72
2020/12/26 01:59:19;;;;;;;3.58;1.48;;;7.20;69.40;;;;;;5013846;28;20429;-72
2020/12/26 02:01:48;;;;;;;2.83;1.45;;;7.00;69.30;;;;;;5028783;28;20033;-72
2020/12/26 02:04:14;;;;;;;5.43;1.80;;;6.70;69.10;;;;;;5013337;28;20125;-72
2020/12/26 02:06:48;;;;;;;3.17;1.50;;;6.80;69.20;;;;;;5013882;28;20565;-72
2020/12/26 02:09:15;;;;;;;3.67;1.50;;;6.60;69.30;;;;;;5012488;28;20065;-72
2020/12/26 02:11:41;;;;;;;1.83;1.33;;;6.60;69.30;;;;;;5028596;28;20478;-72
2020/12/26 02:14:07;;;;;;;5.22;1.65;;;6.70;69.50;;;;;;5014515;28;20052;-72
2020/12/26 02:16:48;;;;;;;2.50;1.70;;;6.70;69.60;;;;;;5019806;28;20037;-72
2020/12/26 02:19:16;;;;;;;4.03;1.98;;;6.60;69.80;;;;;;5020122;28;20038;-72
2020/12/26 02:21:42;;;;;;;3.55;1.73;;;6.80;69.90;;;;;;5019672;28;20540;-72
2020/12/26 02:24:09;;;;;;;7.00;1.80;;;6.60;69.80;;;;;;5020014;28;20045;-72
2020/12/26 02:26:35;;;;;;;4.20;1.80;;;6.60;69.80;;;;;;5020140;28;20038;-72
2020/12/26 02:29:01;;;;;;;5.82;2.08;;;6.70;70.00;;;;;;5019410;28;20046;-72
2020/12/26 02:31:27;;;;;;;2.97;1.70;;;6.80;70.10;;;;;;5020027;28;20038;-72
2020/12/26 02:33:53;;;;;;;4.47;1.90;;;6.90;70.20;;;;;;5019807;28;20056;-72
2020/12/26 02:36:19;;;;;;;2.75;1.60;;;6.80;70.20;;;;;;5019488;28;20173;-72
2020/12/26 02:38:45;;;;;;;3.42;1.55;;;6.70;70.20;;;;;;5018549;28;20417;-72
2020/12/26 02:41:11;;;;;;;5.32;1.80;;;6.70;70.80;;;;;;5019534;28;20044;-72
2020/12/26 02:43:38;;;;;;;3.70;1.60;;;6.80;70.30;;;;;;5019747;28;20052;-72
2020/12/26 02:46:04;;;;;;;5.65;1.65;;;6.70;70.30;;;;;;5019859;28;20049;-72
2020/12/26 02:48:29;;;;;;;4.32;1.40;;;6.90;70.30;;;;;;5019622;28;20417;-72
2020/12/26 02:50:56;;;;;;;3.63;1.38;;;7.00;70.40;;;;;;5018539;28;20034;-72
2020/12/26 02:53:22;;;;;;;2.88;1.45;;;6.90;70.40;;;;;;5019556;28;20059;-72
2020/12/26 02:55:49;;;;;;;5.13;1.35;;;7.00;70.50;;;;;;5019664;28;20030;-72
2020/12/26 02:58:15;;;;;;;3.60;1.50;;;6.90;70.40;;;;;;5019190;28;20076;-72
2020/12/26 03:00:41;;;;;;;4.00;1.55;;;7.10;70.60;;;;;;5019885;28;20482;-72
2020/12/26 03:03:07;;;;;;;3.80;2.42;;;7.00;70.50;;;;;;5019331;28;20449;-72
2020/12/26 03:05:33;;;;;;;3.70;1.88;;;7.20;70.80;;;;;;5019624;28;20527;-72
2020/12/26 03:07:59;;;;;;;3.60;1.60;;;7.20;70.90;;;;;;5019304;28;20132;-72
2020/12/26 03:10:24;;;;;;;4.25;1.73;;;6.80;70.80;;;;;;5019353;28;20515;-72
2020/12/26 03:12:50;;;;;;;4.10;1.65;;;7.10;71.00;;;;;;5019218;28;20494;-72
2020/12/26 03:15:16;;;;;;;4.15;1.40;;;7.00;71.00;;;;;;5019627;28;20034;-72
2020/12/26 03:17:42;;;;;;;3.83;1.63;;;6.90;71.00;;;;;;5019653;28;20045;-72
2020/12/26 03:20:08;;;;;;;4.22;1.33;;;7.20;71.10;;;;;;5019450;28;20247;-72
2020/12/26 03:22:34;;;;;;;2.72;1.33;;;7.20;71.30;;;;;;5019410;28;20100;-72
2020/12/26 03:25:00;;;;;;;4.00;1.40;;;7.60;71.40;;;;;;5019505;28;20092;-72
2020/12/26 03:27:26;;;;;;;3.47;1.40;;;7.50;71.30;;;;;;5015683;28;20046;-72
2020/12/26 03:29:52;;;;;;;3.70;1.63;;;7.30;71.40;;;;;;5016310;28;20060;-72
2020/12/26 03:32:19;;;;;;;2.75;1.33;;;7.40;71.40;;;;;;5016381;28;20056;-72
2020/12/26 03:34:44;;;;;;;2.60;1.25;;;7.50;71.50;;;;;;5016376;28;20080;-72
2020/12/26 03:37:10;;;;;;;1.38;1.27;;;7.60;71.60;;;;;;5016536;28;20073;-72
2020/12/26 03:39:36;;;;;;;4.38;1.80;;;7.50;71.60;;;;;;5015354;28;20437;-72
2020/12/26 03:42:04;;;;;;;4.97;2.60;;;7.50;71.60;;;;;;5016099;28;20045;-72
2020/12/26 03:44:30;;;;;;;6.43;2.30;;;7.40;71.50;;;;;;5016433;28;20038;-72
2020/12/26 03:46:56;;;;;;;4.95;2.17;;;7.50;71.60;;;;;;5031741;28;20068;-72
2020/12/26 03:49:23;;;;;;;3.28;2.53;;;7.60;71.60;;;;;;5016429;28;20537;-72
2020/12/26 03:51:49;;;;;;;4.82;3.10;;;7.60;71.60;;;;;;5016145;28;20048;-72
2020/12/26 03:54:16;;;;;;;5.38;3.45;;;7.10;71.30;;;;;;5016255;28;20038;-72
2020/12/26 03:56:45;;;;;;;6.28;3.40;;;7.60;71.70;;;;;;5016128;28;20048;-72
2020/12/26 03:59:11;;;;;;;6.05;3.38;;;7.40;71.60;;;;;;5015501;28;20045;-72
2020/12/26 04:01:37;;;;;;;7.93;3.72;;;7.40;71.80;;;;;;5016180;28;20034;-72
2020/12/26 04:04:03;;;;;;;4.90;3.40;;;7.20;71.70;;;;;;5015969;28;20076;-72
2020/12/26 04:06:30;;;;;;;5.68;3.65;;;7.60;71.90;;;;;;5015965;28;20026;-72
2020/12/26 04:08:56;;;;;;;7.35;3.55;;;7.40;71.80;;;;;;5015740;28;20073;-72
2020/12/26 04:11:22;;;;;;;6.65;3.83;;;7.30;71.80;;;;;;5031295;28;20087;-72
2020/12/26 04:13:48;;;;;;;6.70;3.10;;;7.20;71.70;;;;;;5015223;28;20053;-72
2020/12/26 04:16:14;;;;;;;6.32;3.13;;;7.40;71.80;;;;;;5015734;28;20521;-72
2020/12/26 04:18:40;;;;;;;6.45;3.38;;;7.50;71.90;;;;;;5030846;28;20077;-72
2020/12/26 04:21:06;;;;;;;6.47;3.45;;;7.40;72.00;;;;;;5015467;28;20038;-72
2020/12/26 04:23:32;;;;;;;5.70;3.08;;;7.30;72.00;;;;;;5014202;28;20041;-72
2020/12/26 04:25:59;;;;;;;3.60;2.45;;;7.30;72.50;;;;;;5015804;28;20046;-72
2020/12/26 04:28:25;;;;;;;5.95;2.45;;;7.20;72.00;;;;;;5015323;28;20092;-72
2020/12/26 04:30:51;;;;;;;3.65;1.60;;;7.50;72.20;;;;;;5030108;28;20053;-72
2020/12/26 04:33:16;;;;;;;5.53;2.03;;;7.70;72.30;;;;;;5015162;28;20050;-72
2020/12/26 04:35:42;;;;;;;3.38;1.52;;;7.50;72.20;;;;;;5015301;28;20571;-72
2020/12/26 04:38:08;;;;;;;5.80;1.60;;;7.60;72.30;;;;;;5014058;28;20076;-72
2020/12/26 04:40:34;;;;;;;4.35;1.50;;;7.50;72.30;;;;;;5013705;28;20034;-72
2020/12/26 04:43:01;;;;;;;4.68;1.58;;;7.60;72.30;;;;;;5014936;28;20044;-72
2020/12/26 04:45:27;;;;;;;3.10;1.52;;;7.70;72.40;;;;;;5014892;28;20128;-72
2020/12/26 04:48:01;;;;;;;3.80;1.40;;;7.50;72.30;;;;;;5014956;28;20616;-72
2020/12/26 04:50:32;;;;;;;3.05;1.67;;;7.50;72.30;;;;;;5014479;28;20580;-72
2020/12/26 04:53:03;;;;;;;4.35;1.33;;;7.60;72.40;;;;;;5014522;28;20041;-72
2020/12/26 04:55:34;;;;;;;1.90;1.23;;;7.70;72.60;;;;;;5014460;28;20141;-72
2020/12/26 04:58:10;;;;;;;2.80;1.15;;;7.80;72.60;;;;;;5014123;28;20080;-72
2020/12/26 05:00:37;;;;;;;2.08;0.95;;;7.60;72.50;;;;;;5014830;28;20129;-72
2020/12/26 05:03:08;;;;;;;1.88;0.90;;;7.60;72.50;;;;;;5014515;28;20143;-72
2020/12/26 05:05:34;;;;;;;2.38;0.98;;;7.70;72.70;;;;;;5014871;28;20042;-72
2020/12/26 05:08:05;;;;;;;3.90;1.02;;;7.80;72.80;;;;;;5013016;28;20044;-72
2020/12/26 05:10:31;;;;;;;3.13;0.90;;;7.80;72.90;;;;;;5014366;28;20044;-72
2020/12/26 05:12:58;;;;;;;2.40;0.90;;;7.70;72.80;;;;;;5014200;28;20049;-72
2020/12/26 05:15:24;;;;;;;2.17;0.77;;;8.00;72.90;;;;;;5014055;28;20046;-72
2020/12/26 05:17:50;;;;;;;4.95;0.95;;;7.80;72.90;;;;;;5014406;28;20033;-72
2020/12/26 05:20:16;;;;;;;2.53;0.88;;;7.70;72.90;;;;;;5014249;28;20144;-72
2020/12/26 05:22:42;;;;;;;1.58;0.88;;;8.00;73.00;;;;;;5014405;28;20030;-72
2020/12/26 05:25:09;;;;;;;1.95;0.93;;;7.80;72.90;;;;;;5029612;28;20034;-72
2020/12/26 05:27:36;;;;;;;2.83;0.82;;;7.80;73.00;;;;;;5014120;28;20033;-72
2020/12/26 05:30:04;;;;;;;2.22;0.80;;;7.90;73.00;;;;;;5013992;28;20042;-72
2020/12/26 05:32:30;;;;;;;1.70;0.85;;;7.70;73.00;;;;;;5014444;28;20157;-72
2020/12/26 05:35:05;;;;;;;2.08;0.88;;;7.80;73.10;;;;;;5013870;28;20129;-72
2020/12/26 05:37:30;;;;;;;3.88;1.00;;;7.70;73.10;;;;;;5014057;28;20057;-72
2020/12/26 05:40:00;;;;;;;3.42;0.82;;;7.70;73.10;;;;;;5014336;28;20069;-72
2020/12/26 05:42:27;;;;;;;4.78;1.00;;;7.70;73.10;;;;;;5014221;28;20068;-72
2020/12/26 05:45:04;;;;;;;4.13;1.10;;;7.70;73.10;;;;;;5014383;28;20045;-72
2020/12/26 05:47:30;;;;;;;1.80;1.13;;;7.80;73.30;;;;;;5014370;28;20037;-72
2020/12/26 05:49:56;;;;;;;3.90;1.17;;;7.80;73.30;;;;;;5013856;28;20041;-72
2020/12/26 05:52:27;;;;;;;3.58;1.05;;;7.80;73.20;;;;;;5014170;28;20052;-72
2020/12/26 05:54:53;;;;;;;4.60;1.10;;;7.80;73.20;;;;;;5028931;28;20069;-72
2020/12/26 05:57:20;;;;;;;1.52;0.88;;;7.70;73.20;;;;;;5028810;28;20038;-72
2020/12/26 05:59:47;;;;;;;3.38;1.02;;;7.70;73.10;;;;;;5014288;28;20037;-72
2020/12/26 06:02:30;;;;;;;5.80;1.00;;;8.00;73.30;;;;;;5013913;28;20048;-72
2020/12/26 06:05:05;;;;;;;3.45;0.88;;;7.50;72.90;;;;;;5013949;28;20046;-72
2020/12/26 06:07:36;;;;;;;2.78;0.63;;;7.60;73.00;;;;;;5013875;28;20034;-72
2020/12/26 06:10:08;;;;;;;2.53;0.80;;;7.40;72.80;;;;;;5012536;28;20045;-72
2020/12/26 06:12:34;;;;;;;1.60;0.73;;;7.20;72.70;;;;;;5013852;28;20054;-72
2020/12/26 06:15:01;;;;;;;3.28;0.90;;;6.80;72.40;;;;;;5013481;28;20068;-72
2020/12/26 06:17:28;;;;;;;2.33;0.80;;;7.10;72.60;;;;;;5013895;28;20247;-72
2020/12/26 06:20:06;;;;;;;2.45;0.88;;;6.80;72.50;;;;;;5013323;28;20046;-72
2020/12/26 06:22:49;;;;;;;4.00;0.82;;;6.80;72.50;;;;;;5013927;28;20045;-72
2020/12/26 06:25:20;;;;;;;2.58;1.00;;;6.80;72.50;;;;;;5012186;28;20038;-72
2020/12/26 06:27:59;;;;;;;2.60;1.02;;;6.80;72.60;;;;;;5013337;28;20038;-72
2020/12/26 06:30:25;;;;;;;5.38;1.30;;;6.70;72.60;;;;;;5028463;28;20061;-72
2020/12/26 06:32:52;;;;;;;1.70;0.90;;;6.40;72.50;;;;;;5013427;28;20050;-72
2020/12/26 06:35:19;;;;;;;3.30;1.40;;;6.40;72.60;;;;;;5013409;28;20037;-72
2020/12/26 06:38:08;;;;;;;3.22;1.48;;;6.10;72.50;;;;;;5013388;28;20049;-72
2020/12/26 06:40:34;;;;;;;8.18;2.97;;;6.30;72.70;;;;;;5013099;28;20104;-72
2020/12/26 06:43:00;;;;;;;5.15;2.65;;;6.40;73.20;;;;;;5012784;28;20096;-72
2020/12/26 06:45:37;;;;;;;5.00;1.63;;;6.60;73.50;;;;;;5013287;28;20038;-72
2020/12/26 06:48:04;;;;;;;3.13;1.63;;;6.40;73.60;;;;;;5013514;28;20041;-72
2020/12/26 06:50:32;;;;;;;4.95;1.90;;;6.90;73.90;;;;;;5013189;28;20042;-72
2020/12/26 06:52:58;;;;;;;4.60;1.80;;;6.70;73.80;;;;;;5013186;28;20054;-72
2020/12/26 06:55:47;;;;;;;3.38;1.90;;;7.00;74.00;;;;;;5012848;28;20172;-72
2020/12/26 06:58:25;;;;;;;3.63;2.00;;;7.10;73.90;;;;;;5012842;28;20048;-72
2020/12/26 07:00:51;;;;;;;7.82;2.40;;;7.10;74.00;;;;;;5013123;28;20038;-72
2020/12/26 07:03:17;;;;;;;5.03;2.15;;;7.30;74.10;;;;;;5016848;28;20048;-72
2020/12/26 07:05:43;;;;;;;4.32;2.10;;;7.30;74.10;;;;;;5016684;28;20046;-72
2020/12/26 07:08:25;;;;;;;2.90;1.90;;;7.20;74.10;;;;;;5016999;28;20066;-72
2020/12/26 07:10:52;;;;;;;5.10;2.00;;;7.30;74.10;;;;;;5015218;28;20425;-72
2020/12/26 07:13:47;;;;;;;4.30;2.17;;;7.40;74.20;;;;;;5016427;28;20034;-72
2020/12/26 07:16:47;;;;;;;5.23;1.80;;;7.20;74.10;;;;;;5015386;28;20029;-72
2020/12/26 07:19:22;;;;;;;3.38;1.50;;;7.30;74.10;;;;;;5016466;28;20300;-72
2020/12/26 07:21:56;;;;;;;3.85;1.67;;;7.20;74.20;;;;;;5016445;28;20064;-72
2020/12/26 07:24:23;;;;;;;4.65;2.53;;;7.40;74.50;;;;;;5016364;28;20145;-72
2020/12/26 07:26:49;;;;;;;5.53;3.50;;;7.30;74.40;;;;;;5016571;28;20045;-72
2020/12/26 07:29:26;;;;;;;5.63;2.35;;;7.20;74.30;;;;;;5016085;28;20048;-72
2020/12/26 07:31:52;;;;;;;6.72;2.88;;;7.50;74.50;;;;;;5016532;28;20551;-72
2020/12/26 07:34:38;;;;;;;3.78;1.85;;;7.50;74.50;;;;;;5031472;28;20124;-72
2020/12/26 07:37:05;;;;;;;4.38;2.15;;;7.60;74.50;;;;;;5016235;28;20125;-72
2020/12/26 07:39:31;;;;;;;3.95;1.98;;;7.60;74.50;;;;;;5016336;28;20129;-72
2020/12/26 07:41:57;;;;;;;2.58;1.90;;;7.50;74.40;;;;;;5014987;28;20042;-72
2020/12/26 07:44:29;;;;;;;5.68;2.30;;;8.00;74.50;;;;;;5016320;28;20050;-72
2020/12/26 07:46:56;;;;;;;2.60;1.73;;;7.80;74.50;;;;;;5016245;28;20034;-72
2020/12/26 07:49:25;;;;;;;4.35;1.88;;;7.80;74.40;;;;;;5016397;28;20074;-72
2020/12/26 07:52:20;;;;;;;4.28;2.10;;;7.80;75.00;;;;;;5016196;28;20038;-72
2020/12/26 07:54:55;;;;;;;4.53;2.13;;;7.80;74.50;;;;;;5007305;28;20571;-72
2020/12/26 07:57:21;;;;;;;9.70;5.30;;;7.90;74.50;;;;;;5014226;28;20038;-71
2020/12/26 07:59:47;;;;;;;10.95;6.63;;;7.90;74.50;;;;;;5015968;28;20126;-72
2020/12/26 08:02:13;;;;;;;13.20;9.15;;;7.80;74.40;;;;;;5015763;28;20128;-72
2020/12/26 08:04:46;;;;;;;11.20;7.60;;;7.80;74.30;;;;;;5015987;28;20555;-72
2020/12/26 08:07:13;;;;;;;11.00;6.20;;;7.80;74.30;;;;;;5016032;28;20046;-72
2020/12/26 08:09:47;;;;;;;6.35;3.33;;;7.90;74.40;;;;;;5015667;28;20034;-72
2020/12/26 08:12:12;;;;;;;12.23;6.13;;;7.80;74.50;;;;;;5015079;28;20104;-72
2020/12/26 08:14:38;;;;;;;12.40;5.40;;;7.90;74.60;;;;;;5015469;28;20034;-72
2020/12/26 08:17:06;;;;;;;7.30;3.90;;;8.00;74.60;;;;;;5015623;28;20042;-72
2020/12/26 08:19:34;;;;;;;6.50;1.63;;;9.20;75.30;;;;;;5031027;28;20042;-72
2020/12/26 08:22:00;;;;;;;9.25;4.63;;;8.10;74.80;;;;;;5016096;28;20046;-72
2020/12/26 08:24:25;;;;;;;4.65;2.63;;;7.80;74.70;;;;;;5015557;28;20030;-72
2020/12/26 08:26:56;;;;;;;8.77;3.63;;;7.90;75.00;;;;;;5015514;28;20042;-72
2020/12/26 08:29:28;;;;;;;6.00;4.03;;;7.90;75.10;;;;;;5015102;28;20034;-72
2020/12/26 08:32:09;;;;;;;2.55;1.38;;;8.00;75.10;;;;;;5015190;28;20053;-72
2020/12/26 08:34:41;;;;;;;2.60;1.30;;;8.30;75.10;;;;;;5015223;28;20042;-72
2020/12/26 08:37:17;;;;;;;6.57;2.78;;;8.10;74.80;;;;;;5015329;28;20092;-72
2020/12/26 08:39:44;;;;;;;4.35;1.45;;;8.30;75.00;;;;;;5014851;28;20041;-72
2020/12/26 08:42:18;;;;;;;5.47;1.95;;;8.50;75.20;;;;;;5014836;28;20030;-72
2020/12/26 08:44:44;;;;;;;3.55;1.33;;;8.60;75.10;;;;;;5014970;28;20128;-72
2020/12/26 08:47:10;;;;;;;2.92;2.00;;;8.30;74.90;;;;;;5029922;28;20113;-72
2020/12/26 08:49:44;;;;;;;4.88;2.75;;;8.40;75.00;;;;;;5014865;28;20088;-72
2020/12/26 08:52:11;;;;;;;1.88;1.02;;;8.70;75.00;;;;;;5014566;28;20132;-72
2020/12/26 08:54:37;;;;;;;6.55;2.33;;;8.80;75.00;;;;;;5014580;28;20130;-72
2020/12/26 08:57:18;;;;;;;7.05;2.55;;;8.80;74.80;;;;;;5014573;28;20120;-72
2020/12/26 08:59:44;;;;;;;6.20;2.40;;;8.70;74.70;;;;;;5014769;28;20133;-72
2020/12/26 09:02:11;;;;;;;4.82;1.35;;;8.80;74.70;;;;;;5014890;28;20125;-72
2020/12/26 09:04:37;;;;;;;14.95;4.95;;;8.90;74.70;;;;;;5014267;28;20569;-72
2020/12/26 09:07:18;;;;;;;5.78;2.22;;;9.10;74.70;;;;;;5014581;28;20121;-72
2020/12/26 09:09:44;;;;;;;4.65;1.70;;;9.20;74.60;;;;;;5014642;28;20041;-72
2020/12/26 09:12:14;;;;;;;4.43;1.77;;;9.10;74.60;;;;;;5013816;28;20045;-72
2020/12/26 09:14:40;;;;;;;5.65;1.70;;;9.30;74.50;;;;;;5014028;28;20125;-72
2020/12/26 09:17:06;;;;;;;4.60;2.30;;;9.30;74.30;;;;;;5014438;28;20177;-72
2020/12/26 09:19:45;;;;;;;2.88;1.20;;;9.30;74.10;;;;;;5014478;28;20115;-72
2020/12/26 09:22:12;;;;;;;2.88;1.40;;;9.40;73.90;;;;;;5014519;28;20045;-72
2020/12/26 09:24:38;;;;;;;3.67;1.02;;;9.50;73.90;;;;;;5013699;28;20046;-72
2020/12/26 09:27:04;;;;;;;3.95;1.30;;;9.40;73.80;;;;;;5028977;28;20437;-72
2020/12/26 09:29:30;;;;;;;4.03;0.90;;;9.40;73.80;;;;;;5013970;28;20049;-72
2020/12/26 09:31:56;;;;;;;2.47;0.82;;;9.70;73.70;;;;;;5013875;28;20029;-72
2020/12/26 09:34:24;;;;;;;2.63;0.75;;;9.80;73.70;;;;;;5014097;28;20120;-72
2020/12/26 09:37:07;;;;;;;3.47;0.70;;;10.00;73.60;;;;;;5013080;28;20042;-72
2020/12/26 09:39:34;;;;;;;2.72;0.70;;;10.00;73.30;;;;;;5013592;28;20045;-72
2020/12/26 09:42:00;;;;;;;1.98;0.80;;;10.10;73.20;;;;;;5013786;28;20042;-72
2020/12/26 09:44:26;;;;;;;3.78;0.80;;;10.90;73.50;;;;;;5013979;28;20041;-73
2020/12/26 09:46:59;;;;;;;3.33;0.85;;;10.40;73.00;;;;;;5014311;28;20040;-72
2020/12/26 09:49:25;;;;;;;1.55;0.88;;;10.40;72.70;;;;;;5013993;28;20068;-72
2020/12/26 09:51:51;;;;;;;3.20;0.63;;;10.50;72.60;;;;;;5014303;28;20041;-72
2020/12/26 09:54:17;;;;;;;4.25;0.93;;;10.60;72.40;;;;;;5013282;28;20045;-72
2020/12/26 09:56:43;;;;;;;1.67;0.63;;;10.70;72.20;;;;;;5013874;28;20406;-72
2020/12/26 09:59:08;;;;;;;3.38;1.00;;;10.60;72.10;;;;;;5013664;28;20045;-72
2020/12/26 10:01:34;;;;;;;1.35;0.70;;;10.70;72.00;;;;;;5013666;28;20121;-72
2020/12/26 10:04:00;;;;;;;2.28;1.00;;;10.70;71.90;;;;;;5013526;28;20133;-72
2020/12/26 10:06:26;;;;;;;3.80;0.93;;;10.70;71.80;;;;;;5013679;28;20125;-72
2020/12/26 10:08:52;;;;;;;4.00;1.20;;;10.70;71.70;;;;;;5013679;28;20085;-72
2020/12/26 10:11:19;;;;;;;5.53;1.80;;;10.70;71.70;;;;;;5013439;28;20081;-72
2020/12/26 10:13:47;;;;;;;3.50;1.58;;;10.80;71.50;;;;;;5013424;28;20068;-72
2020/12/26 10:16:16;;;;;;;2.45;1.30;;;10.90;71.60;;;;;;5013366;28;20045;-72
2020/12/26 10:18:42;;;;;;;2.47;1.20;;;10.90;71.30;;;;;;5013577;28;20048;-72
2020/12/26 10:21:07;;;;;;;2.33;1.58;;;11.20;71.40;;;;;;5013420;28;20049;-72
2020/12/26 10:23:33;;;;;;;2.95;1.55;;;11.20;71.10;;;;;;5028646;28;20041;-71
2020/12/26 10:26:06;;;;;;;3.42;1.48;;;11.40;71.00;;;;;;5013528;28;20149;-72
2020/12/26 10:28:33;;;;;;;2.78;1.33;;;11.20;70.70;;;;;;5013394;28;20060;-72
2020/12/26 10:30:59;;;;;;;3.10;1.40;;;11.30;70.70;;;;;;5013651;28;20057;-72
2020/12/26 10:33:25;;;;;;;4.00;1.88;;;11.30;70.70;;;;;;5013766;28;20049;-71
2020/12/26 10:35:51;;;;;;;1.55;1.20;;;11.40;70.60;;;;;;5015594;28;20038;-71
2020/12/26 10:38:17;;;;;;;1.80;0.80;;;11.40;70.50;;;;;;5017876;28;20040;-72
2020/12/26 10:40:43;;;;;;;2.92;1.05;;;11.70;70.50;;;;;;5017352;28;20046;-72
2020/12/26 10:43:09;;;;;;;2.13;0.70;;;11.60;70.20;;;;;;5017134;28;20511;-72
2020/12/26 10:45:34;;;;;;;1.55;0.90;;;11.60;69.80;;;;;;5017662;28;20115;-72
2020/12/26 10:48:00;;;;;;;4.13;1.15;;;11.70;69.90;;;;;;5017861;28;20034;-72
2020/12/26 10:50:26;;;;;;;2.28;0.88;;;11.70;69.70;;;;;;5017146;28;20121;-71
2020/12/26 10:52:51;;;;;;;2.58;1.08;;;11.80;69.50;;;;;;5016958;28;20394;-72
2020/12/26 10:55:18;;;;;;;2.20;1.10;;;11.80;69.30;;;;;;5017185;28;20042;-72
2020/12/26 10:57:43;;;;;;;2.25;1.20;;;12.10;69.50;;;;;;5016854;28;20092;-73
2020/12/26 11:00:10;;;;;;;3.72;1.48;;;12.10;69.20;;;;;;5016180;28;20045;-73
2020/12/26 11:02:36;;;;;;;2.30;1.52;;;12.20;69.20;;;;;;5032472;28;20042;-73
2020/12/26 11:05:04;;;;;;;3.17;1.23;;;12.30;69.10;;;;;;5017201;28;20123;-73
2020/12/26 11:07:30;;;;;;;2.30;0.85;;;12.40;68.90;;;;;;5016892;28;20033;-73
2020/12/26 11:09:56;;;;;;;4.07;1.50;;;12.50;68.50;;;;;;5017124;28;20037;-73
2020/12/26 11:12:22;;;;;;;3.78;1.90;;;12.50;68.40;;;;;;5016915;28;20057;-73
2020/12/26 11:14:48;;;;;;;5.80;4.13;;;12.50;68.20;;;;;;5017058;28;20041;-73
2020/12/26 11:17:14;;;;;;;5.55;3.70;;;12.40;68.10;;;;;;5031848;28;20042;-73
2020/12/26 11:19:40;;;;;;;5.15;3.55;;;12.70;68.30;;;;;;5016781;28;20052;-73
2020/12/26 11:22:06;;;;;;;5.30;2.83;;;12.50;68.20;;;;;;5016890;28;20043;-72
2020/12/26 11:24:32;;;;;;;3.83;2.60;;;12.50;67.90;;;;;;5016541;28;20054;-71
2020/12/26 11:26:58;;;;;;;3.78;2.03;;;12.50;67.80;;;;;;5016489;28;20033;-71
2020/12/26 11:29:24;;;;;;;3.65;1.60;;;12.50;67.70;;;;;;5016541;28;20094;-72
2020/12/26 11:31:49;;;;;;;3.58;1.92;;;12.50;67.60;;;;;;5016711;28;20041;-72
2020/12/26 11:34:15;;;;;;;5.10;2.88;;;12.60;67.70;;;;;;5016643;28;20046;-72
2020/12/26 11:36:41;;;;;;;3.88;1.70;;;12.60;67.60;;;;;;5016314;28;20490;-72
2020/12/26 11:39:08;;;;;;;5.47;4.03;;;12.70;67.40;;;;;;5016272;28;20071;-72
2020/12/26 11:41:34;;;;;;;7.78;5.50;;;12.70;67.30;;;;;;5016499;28;20065;-72
2020/12/26 11:44:00;;;;;;;12.20;8.60;;;12.60;67.20;;;;;;5016513;28;20123;-72
2020/12/26 11:46:26;;;;;;;3.05;1.30;;;12.80;67.10;;;;;;5015998;28;20076;-72
2020/12/26 11:48:52;;;;;;;4.65;2.13;;;12.90;66.90;;;;;;5015848;28;20079;-72
2020/12/26 11:51:18;;;;;;;3.65;1.67;;;13.00;66.90;;;;;;5016120;28;20042;-72
2020/12/26 11:53:44;;;;;;;1.70;0.68;;;12.90;66.70;;;;;;5016067;28;20053;-72
2020/12/26 11:56:15;;;;;;;1.02;0.10;;;12.90;66.70;;;;;;5016239;28;20092;-72
2020/12/26 11:58:41;;;;;;;1.60;0.10;;;12.70;66.80;;;;;;5015933;28;20490;-72
2020/12/26 12:01:08;;;;;;;0.60;0.10;;;12.80;67.20;;;;;;5015946;28;20034;-71
2020/12/26 12:03:34;;;;;;;0.88;0.10;;;12.50;67.30;;;;;;5015813;28;20050;-71
2020/12/26 12:06:00;;;;;;;0.98;0.03;;;12.30;67.40;;;;;;5015980;28;20030;-72
2020/12/26 12:08:26;;;;;;;1.38;0.10;;;12.50;67.60;;;;;;5016067;28;20037;-72
2020/12/26 12:10:52;;;;;;;2.15;0.10;;;12.50;67.90;;;;;;5015666;28;20069;-73
2020/12/26 12:13:18;;;;;;;0.90;0.00;;;12.30;67.80;;;;;;5015482;28;20049;-70
2020/12/26 12:15:44;;;;;;;0.57;0.10;;;12.40;68.10;;;;;;5015846;28;20041;-71
2020/12/26 12:18:10;;;;;;;1.23;0.10;;;12.20;68.40;;;;;;5015800;28;20382;-71
2020/12/26 12:20:36;;;;;;;1.98;0.00;;;12.30;68.60;;;;;;5015471;28;20073;-70
2020/12/26 12:23:02;;;;;;;2.67;0.00;;;12.20;68.90;;;;;;5015426;28;20050;-71
2020/12/26 12:25:29;;;;;;;0.38;0.00;;;12.20;69.30;;;;;;5015358;28;20517;-71
2020/12/26 12:27:56;;;;;;;0.63;0.00;;;12.00;69.60;;;;;;5015712;28;20025;-71
2020/12/26 12:30:26;;;;;;;1.23;0.00;;;12.30;70.10;;;;;;5015250;28;20050;-71
2020/12/26 12:32:52;;;;;;;0.63;0.00;;;12.20;70.20;;;;;;5015373;28;20048;-71
2020/12/26 12:35:19;;;;;;;1.17;0.00;;;12.10;70.30;;;;;;5015303;28;20041;-71
2020/12/26 12:37:49;;;;;;;0.40;0.00;;;12.20;70.60;;;;;;5014913;28;20049;-71
2020/12/26 12:40:15;;;;;;;1.52;0.10;;;12.00;71.10;;;;;;5014848;28;20133;-71
2020/12/26 12:42:41;;;;;;;1.00;0.10;;;11.90;71.20;;;;;;5014763;28;20517;-71
2020/12/26 12:45:07;;;;;;;0.98;0.15;;;11.90;71.30;;;;;;5014917;28;20041;-71
2020/12/26 12:47:33;;;;;;;1.38;0.20;;;12.00;71.50;;;;;;5014822;28;20041;-72
2020/12/26 12:49:59;;;;;;;0.70;0.20;;;11.80;71.70;;;;;;5014723;28;20037;-71
2020/12/26 12:52:25;;;;;;;1.23;0.10;;;11.90;72.00;;;;;;5014615;28;20132;-71
2020/12/26 12:54:51;;;;;;;0.82;0.13;;;11.80;72.20;;;;;;5014936;28;20066;-71
2020/12/26 12:57:17;;;;;;;1.92;0.00;;;11.80;72.50;;;;;;5014627;28;20030;-72